createdAt,value
2023-10-06T00:03:31.479Z,50.54
2023-10-06T00:06:00.123Z,50.61
2023-10-06T00:08:34.235Z,50.67
2023-10-06T00:11:12.877Z,50.78
2023-10-06T00:13:40.008Z,50.87
2023-10-06T00:16:08.678Z,50.89
2023-10-06T00:18:38.846Z,51.00
2023-10-06T00:21:16.140Z,50.96
2023-10-06T00:23:44.499Z,51.01
2023-10-06T00:26:13.502Z,51.00
2023-10-06T00:28:40.748Z,50.91
2023-10-06T00:31:09.655Z,50.87
2023-10-06T00:33:39.701Z,50.86
2023-10-06T00:36:18.918Z,50.90
2023-10-06T00:38:48.488Z,50.79
2023-10-06T00:41:16.170Z,50.92
2023-10-06T00:43:46.980Z,51.03
2023-10-06T00:46:15.182Z,50.98
2023-10-06T00:48:44.309Z,51.10
2023-10-06T00:51:18.205Z,51.31
2023-10-06T00:53:46.973Z,51.23
2023-10-06T00:56:17.752Z,51.44
2023-10-06T00:58:45.213Z,51.72
2023-10-06T01:01:18.663Z,51.85
2023-10-06T01:03:50.354Z,51.97
2023-10-06T01:06:24.184Z,52.06
2023-10-06T01:08:57.054Z,52.19
2023-10-06T01:11:28.177Z,52.38
2023-10-06T01:13:58.767Z,52.51
2023-10-06T01:16:31.215Z,52.37
2023-10-06T01:19:15.333Z,52.48
2023-10-06T01:21:49.533Z,52.55
2023-10-06T01:24:27.019Z,52.55
2023-10-06T01:26:55.247Z,52.56
2023-10-06T01:29:23.755Z,52.43
2023-10-06T01:31:51.529Z,52.24
2023-10-06T01:34:19.795Z,51.98
2023-10-06T01:36:53.388Z,52.04
2023-10-06T01:39:26.872Z,52.01
2023-10-06T01:41:54.276Z,52.26
2023-10-06T01:44:21.269Z,52.54
2023-10-06T01:46:54.671Z,52.85
2023-10-06T01:49:23.110Z,52.92
2023-10-06T01:54:29.249Z,53.35
2023-10-06T01:56:56.632Z,53.57
2023-10-06T01:59:23.600Z,53.96
2023-10-06T02:01:50.865Z,54.08
2023-10-06T02:04:20.329Z,54.23
2023-10-06T02:06:52.320Z,54.53
2023-10-06T02:09:19.534Z,54.60
2023-10-06T02:11:52.121Z,54.76
2023-10-06T02:14:19.745Z,54.73
2023-10-06T02:16:47.620Z,54.75
2023-10-06T02:19:17.799Z,54.92
2023-10-06T02:21:47.100Z,54.92
2023-10-06T02:24:14.227Z,55.13
2023-10-06T02:26:41.891Z,54.74
2023-10-06T02:29:23.594Z,55.05
2023-10-06T02:31:51.058Z,55.11
2023-10-06T02:34:30.785Z,55.67
2023-10-06T02:36:58.335Z,55.89
2023-10-06T02:39:32.542Z,56.09
2023-10-06T02:42:02.233Z,56.00
2023-10-06T02:44:31.742Z,56.64
2023-10-06T02:47:02.471Z,57.28
2023-10-06T02:49:35.527Z,57.35
2023-10-06T02:52:06.470Z,57.87
2023-10-06T02:54:33.594Z,58.05
2023-10-06T02:57:04.347Z,58.08
2023-10-06T02:59:35.896Z,57.95
2023-10-06T03:02:08.016Z,57.84
2023-10-06T03:04:37.507Z,57.81
2023-10-06T03:07:13.007Z,57.96
2023-10-06T03:09:45.430Z,57.45
2023-10-06T03:12:21.561Z,57.78
2023-10-06T03:14:50.118Z,57.55
2023-10-06T03:17:20.661Z,57.67
2023-10-06T03:20:08.192Z,57.94
2023-10-06T03:22:42.309Z,57.36
2023-10-06T03:25:18.781Z,57.81
2023-10-06T03:27:47.045Z,57.53
2023-10-06T03:30:28.536Z,57.59
2023-10-06T03:32:56.242Z,57.67
2023-10-06T03:35:24.833Z,57.78
2023-10-06T03:38:09.311Z,57.50
2023-10-06T03:40:54.524Z,57.71
2023-10-06T03:43:40.667Z,57.43
2023-10-06T03:46:12.183Z,57.29
2023-10-06T03:48:40.596Z,57.82
2023-10-06T03:51:07.513Z,57.32
2023-10-06T03:53:34.771Z,57.59
2023-10-06T03:56:02.023Z,57.40
2023-10-06T03:58:29.571Z,57.78
2023-10-06T04:00:57.207Z,57.47
2023-10-06T04:03:25.829Z,57.77
2023-10-06T04:05:53.173Z,57.96
2023-10-06T04:08:24.783Z,57.54
2023-10-06T04:10:56.213Z,58.37
2023-10-06T04:13:24.320Z,58.34
2023-10-06T04:15:53.366Z,58.37
2023-10-06T04:18:25.106Z,58.13
2023-10-06T04:20:54.711Z,57.91
2023-10-06T04:23:25.864Z,58.04
2023-10-06T04:25:57.802Z,58.33
2023-10-06T04:28:30.459Z,58.32
2023-10-06T04:31:02.421Z,58.20
2023-10-06T04:33:30.110Z,58.29
2023-10-06T04:36:12.260Z,58.47
2023-10-06T04:38:41.128Z,58.84
2023-10-06T04:41:09.953Z,58.39
2023-10-06T04:43:41.083Z,58.35
2023-10-06T04:46:08.292Z,58.56
2023-10-06T04:48:39.317Z,58.49
2023-10-06T04:51:10.762Z,58.14
2023-10-06T04:53:39.193Z,58.25
2023-10-06T04:56:08.105Z,58.33
2023-10-06T04:58:40.144Z,58.41
2023-10-06T05:01:09.307Z,57.94
2023-10-06T05:03:47.792Z,57.77
2023-10-06T05:06:18.692Z,57.84
2023-10-06T05:08:48.872Z,57.62
2023-10-06T05:11:16.652Z,57.43
2023-10-06T05:13:44.397Z,57.20
2023-10-06T05:16:12.960Z,56.90
2023-10-06T05:18:40.163Z,56.59
2023-10-06T05:21:08.026Z,55.78
2023-10-06T05:23:36.900Z,55.10
2023-10-06T05:26:09.394Z,54.57
2023-10-06T05:28:38.552Z,54.11
2023-10-06T05:31:08.045Z,53.89
2023-10-06T05:33:36.120Z,54.08
2023-10-06T05:36:11.220Z,53.68
2023-10-06T05:38:40.454Z,53.86
2023-10-06T05:41:13.712Z,53.82
2023-10-06T05:43:41.784Z,53.70
2023-10-06T05:46:10.358Z,53.29
2023-10-06T05:48:39.529Z,52.49
2023-10-06T05:51:10.137Z,51.79
2023-10-06T05:53:42.375Z,51.90
2023-10-06T05:56:10.168Z,51.69
2023-10-06T05:58:42.064Z,52.40
2023-10-06T06:01:14.618Z,52.26
2023-10-06T06:03:49.064Z,51.69
2023-10-06T06:06:17.431Z,51.56
2023-10-06T06:08:48.986Z,51.40
2023-10-06T06:11:17.244Z,51.23
2023-10-06T06:13:48.245Z,51.31
2023-10-06T06:16:20.275Z,51.61
2023-10-06T06:18:49.714Z,51.51
2023-10-06T06:21:17.763Z,50.38
2023-10-06T06:23:47.959Z,50.50
2023-10-06T06:26:18.257Z,50.30
2023-10-06T06:28:46.068Z,50.41
2023-10-06T06:31:17.765Z,50.34
2023-10-06T06:33:45.352Z,50.26
2023-10-06T06:36:14.257Z,49.90
2023-10-06T06:38:41.556Z,50.52
2023-10-06T06:41:10.145Z,51.36
2023-10-06T06:43:37.410Z,51.25
2023-10-06T06:46:04.510Z,50.88
2023-10-06T06:48:32.576Z,51.21
2023-10-06T06:50:59.618Z,51.03
2023-10-06T06:53:27.353Z,51.15
2023-10-06T06:55:54.776Z,51.21
2023-10-06T06:58:23.753Z,51.18
2023-10-06T07:00:50.930Z,50.99
2023-10-06T07:03:18.531Z,50.65
2023-10-06T07:05:45.559Z,50.41
2023-10-06T07:08:13.334Z,50.30
2023-10-06T07:10:47.881Z,50.06
2023-10-06T07:13:16.174Z,49.79
2023-10-06T07:15:45.892Z,49.77
2023-10-06T07:18:15.966Z,49.41
2023-10-06T07:20:45.450Z,48.98
2023-10-06T07:23:12.894Z,48.43
2023-10-06T07:25:41.255Z,48.08
2023-10-06T07:28:08.741Z,47.33
2023-10-06T07:30:36.236Z,47.39
2023-10-06T07:33:07.189Z,47.27
2023-10-06T07:35:52.695Z,47.17
2023-10-06T07:38:20.151Z,46.89
2023-10-06T07:40:47.237Z,46.86
2023-10-06T07:43:17.019Z,46.58
2023-10-06T07:45:44.099Z,46.42
2023-10-06T07:48:12.894Z,46.15
2023-10-06T07:50:39.962Z,46.11
2023-10-06T07:53:07.814Z,45.85
2023-10-06T07:55:34.946Z,45.75
2023-10-06T07:58:04.436Z,45.50
2023-10-06T08:00:32.130Z,45.34
2023-10-06T08:03:00.985Z,45.16
2023-10-06T08:05:31.477Z,44.77
2023-10-06T08:08:00.025Z,44.77
2023-10-06T08:10:31.869Z,44.60
2023-10-06T08:13:03.191Z,44.72
2023-10-06T08:15:33.429Z,44.08
2023-10-06T08:18:01.839Z,43.72
2023-10-06T08:20:32.118Z,43.25
2023-10-06T08:23:01.162Z,42.51
2023-10-06T08:25:30.089Z,42.03
2023-10-06T08:28:08.752Z,41.77
2023-10-06T08:30:38.550Z,41.68
2023-10-06T08:33:15.040Z,41.68
2023-10-06T08:35:45.583Z,41.26
2023-10-06T08:38:13.007Z,41.13
2023-10-06T08:40:45.753Z,40.90
2023-10-06T08:43:19.988Z,40.82
2023-10-06T08:45:47.609Z,41.09
2023-10-06T08:48:16.943Z,40.59
2023-10-06T08:50:46.107Z,40.45
2023-10-06T08:53:16.267Z,40.27
2023-10-06T08:55:45.532Z,39.91
2023-10-06T08:58:15.805Z,39.76
2023-10-06T09:00:45.758Z,39.21
2023-10-06T09:03:15.873Z,39.04
2023-10-06T09:05:45.726Z,38.84
2023-10-06T09:08:16.034Z,38.43
2023-10-06T09:10:45.386Z,38.12
2023-10-06T09:13:14.097Z,37.44
2023-10-06T09:15:42.342Z,37.49
2023-10-06T09:18:20.713Z,37.17
2023-10-06T09:20:50.135Z,36.70
2023-10-06T09:23:31.559Z,37.05
2023-10-06T09:25:59.482Z,36.42
2023-10-06T09:28:28.022Z,36.76
2023-10-06T09:31:01.603Z,36.30
2023-10-06T09:33:32.853Z,36.66
2023-10-06T09:36:08.426Z,36.14
2023-10-06T09:38:37.721Z,35.22
2023-10-06T09:41:06.736Z,35.46
2023-10-06T09:43:36.055Z,34.86
2023-10-06T09:46:10.136Z,34.76
2023-10-06T09:48:39.058Z,35.08
2023-10-06T09:51:09.816Z,34.88
2023-10-06T09:53:44.939Z,34.57
2023-10-06T09:56:14.278Z,34.71
2023-10-06T09:58:46.201Z,34.64
2023-10-06T10:01:15.530Z,34.36
2023-10-06T10:03:43.751Z,34.28
2023-10-06T10:06:15.385Z,34.33
2023-10-06T10:08:43.082Z,33.77
2023-10-06T10:11:15.729Z,33.55
2023-10-06T10:14:07.981Z,33.85
2023-10-06T10:16:51.052Z,32.72
2023-10-06T10:19:21.463Z,33.08
2023-10-06T10:21:50.791Z,33.22
2023-10-06T10:25:05.309Z,33.24
2023-10-06T10:27:13.637Z,33.26
2023-10-06T10:29:42.200Z,33.02
2023-10-06T10:32:14.557Z,32.62
2023-10-06T10:35:07.061Z,32.67
2023-10-06T10:37:56.057Z,33.32
2023-10-06T10:40:26.166Z,33.29
2023-10-06T10:43:03.457Z,33.38
2023-10-06T10:45:51.924Z,33.48
2023-10-06T10:48:20.097Z,33.37
2023-10-06T10:50:57.561Z,33.18
2023-10-06T10:53:31.670Z,32.84
2023-10-06T10:56:01.529Z,32.85
2023-10-06T10:58:58.703Z,32.41
2023-10-06T11:01:31.630Z,33.05
2023-10-06T11:04:35.910Z,32.60
2023-10-06T11:07:11.510Z,32.55
2023-10-06T11:09:48.342Z,32.66
2023-10-06T11:12:26.361Z,32.14
2023-10-06T11:14:55.182Z,32.27
2023-10-06T11:17:24.409Z,31.84
2023-10-06T11:20:14.656Z,31.62
2023-10-06T11:22:54.309Z,31.38
2023-10-06T11:25:29.527Z,31.45
2023-10-06T11:28:05.199Z,30.66
2023-10-06T11:30:36.600Z,31.08
2023-10-06T11:33:05.876Z,30.90
2023-10-06T11:35:34.460Z,31.33
2023-10-06T11:38:03.485Z,31.10
2023-10-06T11:40:32.356Z,30.90
2023-10-06T11:43:10.853Z,30.97
2023-10-06T11:45:38.153Z,31.22
2023-10-06T11:48:26.274Z,30.91
2023-10-06T11:51:00.410Z,31.01
2023-10-06T11:53:36.649Z,30.85
2023-10-06T11:56:11.400Z,30.15
2023-10-06T11:58:41.878Z,31.04
2023-10-06T12:01:36.713Z,31.80
2023-10-06T12:04:09.599Z,31.16
2023-10-06T12:06:40.212Z,31.06
2023-10-06T12:09:09.632Z,31.28
2023-10-06T12:11:40.303Z,31.12
2023-10-06T12:14:12.128Z,31.06
2023-10-06T12:16:39.472Z,30.90
2023-10-06T12:19:08.410Z,31.08
2023-10-06T12:21:36.388Z,30.80
2023-10-06T12:24:04.476Z,31.03
2023-10-06T12:26:31.594Z,30.55
2023-10-06T12:29:00.578Z,30.99
2023-10-06T12:31:28.701Z,30.47
2023-10-06T12:34:06.790Z,30.31
2023-10-06T12:36:36.673Z,30.35
2023-10-06T12:39:06.255Z,30.51
2023-10-06T12:41:33.351Z,30.49
2023-10-06T12:44:05.616Z,30.32
2023-10-06T12:46:34.530Z,30.41
2023-10-06T12:49:08.139Z,30.29
2023-10-06T12:51:35.593Z,29.94
2023-10-06T12:54:03.087Z,29.20
2023-10-06T12:56:30.115Z,29.65
2023-10-06T12:58:57.628Z,29.60
2023-10-06T13:01:27.083Z,29.49
2023-10-06T13:03:55.438Z,29.63
2023-10-06T13:06:24.094Z,28.36
2023-10-06T13:08:51.824Z,28.92
2023-10-06T13:11:19.643Z,28.97
2023-10-06T13:13:50.407Z,28.97
2023-10-06T13:16:18.407Z,28.58
2023-10-06T13:18:47.279Z,28.68
2023-10-06T13:21:14.291Z,28.71
2023-10-06T13:23:41.687Z,29.28
2023-10-06T13:26:20.499Z,28.97
2023-10-06T13:28:59.212Z,29.11
2023-10-06T13:31:26.251Z,29.22
2023-10-06T13:33:55.684Z,29.45
2023-10-06T13:36:22.817Z,28.74
2023-10-06T13:38:51.389Z,29.04
2023-10-06T13:41:19.900Z,29.17
2023-10-06T13:43:47.310Z,29.28
2023-10-06T13:46:15.882Z,29.32
2023-10-06T13:48:43.266Z,29.54
2023-10-06T13:51:12.782Z,29.86
2023-10-06T13:53:42.273Z,29.80
2023-10-06T13:56:09.577Z,29.75
2023-10-06T13:58:37.266Z,29.80
2023-10-06T14:01:05.517Z,29.59
2023-10-06T14:03:33.173Z,30.07
2023-10-06T14:06:02.445Z,30.13
2023-10-06T14:08:34.751Z,30.22
2023-10-06T14:11:02.734Z,30.36
2023-10-06T14:13:34.937Z,30.49
2023-10-06T14:16:02.285Z,30.19
2023-10-06T14:18:34.294Z,30.82
2023-10-06T14:21:07.618Z,30.73
2023-10-06T14:23:45.065Z,30.98
2023-10-06T14:26:19.722Z,31.05
2023-10-06T14:28:48.850Z,30.91
2023-10-06T14:31:38.615Z,30.84
2023-10-06T14:34:31.446Z,30.95
2023-10-06T14:37:00.935Z,31.28
2023-10-06T14:39:51.252Z,31.19
2023-10-06T14:42:36.795Z,31.04
2023-10-06T14:45:24.486Z,30.88
2023-10-06T14:47:52.461Z,31.27
2023-10-06T14:50:26.492Z,31.20
2023-10-06T14:52:56.054Z,31.19
2023-10-06T14:55:25.020Z,31.51
2023-10-06T14:57:53.657Z,31.39
2023-10-06T15:00:23.222Z,31.33
2023-10-06T15:02:51.618Z,31.27
2023-10-06T15:05:19.420Z,31.38
2023-10-06T15:07:47.404Z,31.44
2023-10-06T15:10:19.608Z,31.41
2023-10-06T15:12:49.499Z,31.47
2023-10-06T15:15:17.136Z,31.75
2023-10-06T15:17:47.753Z,31.55
2023-10-06T15:20:22.157Z,31.82
2023-10-06T15:22:52.342Z,31.99
2023-10-06T15:25:20.357Z,31.94
2023-10-06T15:27:49.379Z,31.95
2023-10-06T15:30:17.882Z,31.98
2023-10-06T15:32:45.267Z,32.00
2023-10-06T15:35:15.436Z,31.83
2023-10-06T15:37:42.834Z,32.07
2023-10-06T15:40:20.236Z,32.08
2023-10-06T15:43:00.567Z,32.09
2023-10-06T15:45:37.409Z,32.57
2023-10-06T15:48:05.467Z,32.95
2023-10-06T15:50:34.495Z,33.13
2023-10-06T15:53:04.461Z,33.15
2023-10-06T15:55:36.796Z,33.44
2023-10-06T15:58:05.549Z,33.70
2023-10-06T16:00:38.542Z,33.59
2023-10-06T16:03:08.655Z,34.02
2023-10-06T16:05:41.385Z,34.26
2023-10-06T16:08:12.140Z,34.29
2023-10-06T16:10:46.970Z,34.69
2023-10-06T16:13:15.820Z,34.80
2023-10-06T16:15:59.725Z,35.25
2023-10-06T16:18:33.768Z,35.46
2023-10-06T16:21:01.516Z,35.74
2023-10-06T16:23:28.687Z,35.75
2023-10-06T16:26:03.285Z,35.90
2023-10-06T16:28:31.911Z,36.32
2023-10-06T16:30:59.160Z,36.31
2023-10-06T16:33:27.713Z,36.63
2023-10-06T16:35:55.185Z,36.93
2023-10-06T16:38:22.549Z,36.94
2023-10-06T16:40:50.070Z,37.16
2023-10-06T16:43:19.414Z,37.19
2023-10-06T16:45:48.338Z,37.68
2023-10-06T16:48:16.969Z,37.85
2023-10-06T16:50:44.425Z,38.20
2023-10-06T16:53:12.229Z,38.35
2023-10-06T16:55:42.397Z,38.54
2023-10-06T16:58:10.252Z,38.76
2023-10-06T17:00:38.993Z,38.95
2023-10-06T17:03:11.070Z,39.15
2023-10-06T17:05:42.922Z,39.15
2023-10-06T17:08:09.983Z,39.38
2023-10-06T17:10:37.884Z,39.70
2023-10-06T17:13:06.445Z,39.82
2023-10-06T17:15:36.328Z,40.01
2023-10-06T17:18:04.844Z,40.10
2023-10-06T17:20:36.125Z,40.29
2023-10-06T17:23:09.964Z,40.17
2023-10-06T17:25:39.311Z,40.24
2023-10-06T17:28:09.038Z,40.36
2023-10-06T17:30:37.702Z,40.44
2023-10-06T17:33:08.526Z,40.45
2023-10-06T17:35:37.344Z,40.54
2023-10-06T17:38:05.116Z,40.71
2023-10-06T17:40:37.896Z,40.74
2023-10-06T17:43:08.519Z,40.78
2023-10-06T17:45:38.269Z,40.75
2023-10-06T17:48:08.978Z,40.85
2023-10-06T17:50:45.329Z,40.96
2023-10-06T17:53:12.615Z,40.98
2023-10-06T17:55:40.040Z,40.99
2023-10-06T17:58:06.956Z,41.22
2023-10-06T18:00:35.001Z,41.29
2023-10-06T18:03:04.580Z,41.55
2023-10-06T18:05:32.467Z,41.61
2023-10-06T18:08:02.876Z,41.78
2023-10-06T18:10:30.425Z,41.88
2023-10-06T18:12:58.103Z,41.85
2023-10-06T18:15:26.638Z,42.03
2023-10-06T18:17:59.787Z,42.12
2023-10-06T18:20:29.594Z,42.26
2023-10-06T18:22:57.442Z,42.31
2023-10-06T18:25:29.169Z,42.55
2023-10-06T18:27:56.229Z,42.47
2023-10-06T18:30:26.508Z,42.84
2023-10-06T18:32:53.978Z,43.04
2023-10-06T18:35:21.404Z,42.95
2023-10-06T18:37:48.861Z,42.98
2023-10-06T18:40:16.505Z,43.26
2023-10-06T18:42:45.122Z,43.08
2023-10-06T18:45:14.287Z,43.23
2023-10-06T18:47:43.886Z,43.35
2023-10-06T18:50:18.863Z,43.40
2023-10-06T18:52:47.265Z,43.43
2023-10-06T18:55:15.200Z,43.53
2023-10-06T18:57:46.514Z,43.52
2023-10-06T19:00:15.434Z,43.68
2023-10-06T19:02:45.330Z,43.44
2023-10-06T19:05:13.008Z,43.59
2023-10-06T19:07:40.219Z,43.74
2023-10-06T19:10:12.055Z,43.76
2023-10-06T19:12:39.298Z,43.73
2023-10-06T19:15:09.398Z,43.75
2023-10-06T19:17:37.972Z,43.72
2023-10-06T19:20:08.563Z,43.95
2023-10-06T19:22:39.434Z,43.85
2023-10-06T19:25:12.759Z,43.79
2023-10-06T19:27:39.867Z,44.10
2023-10-06T19:30:12.034Z,44.00
2023-10-06T19:32:41.653Z,43.89
2023-10-06T19:35:09.609Z,44.15
2023-10-06T19:37:37.241Z,44.17
2023-10-06T19:40:09.510Z,44.22
2023-10-06T19:42:37.378Z,44.14
2023-10-06T19:45:08.597Z,44.46
2023-10-06T19:47:38.281Z,44.49
2023-10-06T19:50:13.242Z,44.79
2023-10-06T19:52:41.645Z,44.72
2023-10-06T19:55:09.693Z,44.88
2023-10-06T19:57:37.745Z,44.91
2023-10-06T20:00:13.450Z,44.86
2023-10-06T20:02:42.568Z,45.09
2023-10-06T20:05:12.848Z,44.98
2023-10-06T20:07:40.570Z,45.12
2023-10-06T20:10:13.856Z,45.25
2023-10-06T20:12:42.273Z,45.38
2023-10-06T20:15:10.592Z,45.30
2023-10-06T20:17:37.842Z,45.41
2023-10-06T20:20:08.002Z,45.51
2023-10-06T20:22:38.346Z,45.47
2023-10-06T20:25:08.112Z,45.69
2023-10-06T20:27:35.145Z,45.74
2023-10-06T20:30:07.030Z,45.79
2023-10-06T20:32:37.943Z,45.80
2023-10-06T20:35:08.634Z,46.13
2023-10-06T20:37:36.422Z,46.01
2023-10-06T20:40:08.029Z,46.12
2023-10-06T20:42:38.179Z,46.24
2023-10-06T20:45:06.806Z,46.17
2023-10-06T20:47:35.056Z,46.30
2023-10-06T20:50:08.610Z,46.24
2023-10-06T20:52:37.363Z,46.60
2023-10-06T20:55:05.443Z,46.79
2023-10-06T20:57:32.518Z,46.70
2023-10-06T21:00:00.000Z,46.87
2023-10-06T21:02:27.823Z,46.91
2023-10-06T21:04:55.323Z,47.14
2023-10-06T21:07:23.226Z,47.03
2023-10-06T21:09:51.896Z,47.11
2023-10-06T21:12:21.907Z,47.19
2023-10-06T21:14:49.653Z,47.20
2023-10-06T21:17:17.283Z,47.10
2023-10-06T21:19:45.499Z,47.22
2023-10-06T21:22:14.768Z,47.16
2023-10-06T21:24:42.274Z,47.28
2023-10-06T21:27:10.957Z,47.52
2023-10-06T21:29:38.197Z,47.57
2023-10-06T21:32:05.527Z,47.53
2023-10-06T21:34:33.023Z,47.85
2023-10-06T21:36:59.972Z,48.08
2023-10-06T21:39:27.425Z,48.15
2023-10-06T21:41:54.572Z,48.33
2023-10-06T21:44:23.488Z,48.41
2023-10-06T21:46:50.524Z,48.21
2023-10-06T21:49:18.015Z,48.15
2023-10-06T21:51:45.403Z,48.02
2023-10-06T21:54:12.932Z,48.10
2023-10-06T21:56:39.872Z,48.16
2023-10-06T21:59:07.318Z,48.27
2023-10-06T22:01:36.541Z,48.43
2023-10-06T22:04:04.278Z,48.51
2023-10-06T22:06:31.567Z,48.63
2023-10-06T22:08:59.112Z,48.63
2023-10-06T22:11:26.362Z,48.60
2023-10-06T22:13:54.740Z,48.75
2023-10-06T22:16:22.063Z,48.78
2023-10-06T22:18:50.810Z,48.87
2023-10-06T22:21:18.152Z,48.96
2023-10-06T22:23:47.258Z,48.94
2023-10-06T22:26:14.274Z,49.27
2023-10-06T22:28:41.495Z,49.19
2023-10-06T22:31:10.431Z,49.58
2023-10-06T22:33:38.117Z,49.70
2023-10-06T22:36:07.332Z,49.78
2023-10-06T22:38:35.385Z,49.81
2023-10-06T22:41:02.438Z,50.09
2023-10-06T22:43:30.483Z,50.32
2023-10-06T22:45:57.674Z,50.50
2023-10-06T22:48:24.950Z,50.66
2023-10-06T22:50:52.082Z,50.66
2023-10-06T22:53:23.376Z,51.23
2023-10-06T22:55:52.391Z,51.29
2023-10-06T22:58:19.890Z,51.27
2023-10-06T23:00:46.900Z,51.67
2023-10-06T23:03:14.978Z,51.48
2023-10-06T23:05:42.089Z,51.48
2023-10-06T23:08:10.554Z,51.72
2023-10-06T23:10:39.064Z,51.67
2023-10-06T23:13:08.334Z,51.69
2023-10-06T23:15:35.391Z,52.16
2023-10-06T23:18:02.862Z,52.14
2023-10-06T23:20:30.267Z,52.50
2023-10-06T23:22:59.523Z,52.68
2023-10-06T23:25:37.217Z,53.16
2023-10-06T23:28:08.196Z,53.41
2023-10-06T23:30:35.813Z,53.66
2023-10-06T23:33:03.512Z,54.09
2023-10-06T23:35:30.585Z,54.15
2023-10-06T23:37:58.389Z,54.39
2023-10-06T23:40:26.665Z,54.43
2023-10-06T23:42:58.457Z,54.69
2023-10-06T23:45:32.947Z,54.33
2023-10-06T23:48:10.530Z,54.54
2023-10-06T23:50:42.308Z,54.63
2023-10-06T23:53:10.371Z,55.02
2023-10-06T23:55:43.435Z,55.01
2023-10-06T23:58:17.518Z,55.77
